Time;durP1;ratioP1;P1;durP2;ratioP2;P2;SDS_P1;SDS_P2;PMS_P1;PMS_P2;Temp;Humidity;BMP_temperature;BMP_pressure;BME280_temperature;BME280_humidity;BME280_pressure;Samples;Min_cycle;Max_cycle;Signal;HPM_P1;HPM_P2
2023/05/20 00:02:08;;;;;;;2.88;1.80;;;;;;;13.46;nan;100764.94;4976035;28;20031;-86
2023/05/20 00:04:33;;;;;;;3.50;1.73;;;;;;;13.41;nan;100768.09;4974334;28;20137;-85
2023/05/20 00:06:59;;;;;;;3.00;1.80;;;;;;;13.41;nan;100772.56;4991524;28;20034;-86
2023/05/20 00:09:24;;;;;;;3.10;2.10;;;;;;;13.41;nan;100767.25;4982687;28;20038;-86
2023/05/20 00:11:49;;;;;;;3.47;2.00;;;;;;;13.49;nan;100769.91;4985732;28;20034;-85
2023/05/20 00:14:14;;;;;;;3.83;2.23;;;;;;;13.51;nan;100770.59;4984724;28;20042;-86
2023/05/20 00:16:40;;;;;;;5.77;2.20;;;;;;;13.49;nan;100770.78;4970419;28;20620;-85
2023/05/20 00:19:06;;;;;;;4.35;1.90;;;;;;;13.41;nan;100760.13;4986028;28;20270;-86
2023/05/20 00:21:32;;;;;;;3.13;1.75;;;;;;;13.32;nan;100769.94;4963206;28;20069;-86
2023/05/20 00:23:58;;;;;;;2.70;1.92;;;;;;;13.27;nan;100764.25;4972789;28;20035;-86
2023/05/20 00:26:23;;;;;;;3.55;2.08;;;;;;;13.28;nan;100763.28;4973545;28;20046;-85
2023/05/20 00:28:48;;;;;;;3.88;2.20;;;;;;;13.40;nan;100757.66;4991974;28;20046;-85
2023/05/20 00:31:14;;;;;;;4.07;2.30;;;;;;;13.49;nan;100759.28;4992341;28;20037;-85
2023/05/20 00:33:40;;;;;;;4.00;2.40;;;;;;;13.55;nan;100761.31;4993292;28;20034;-84
2023/05/20 00:36:05;;;;;;;3.10;2.00;;;;;;;13.56;nan;100761.16;4988934;28;20084;-85
2023/05/20 00:38:32;;;;;;;4.03;2.30;;;;;;;13.63;nan;100758.63;4981572;28;20412;-85
2023/05/20 00:40:57;;;;;;;4.85;2.30;;;;;;;13.64;nan;100756.81;4976885;28;20027;-85
2023/05/20 00:43:25;;;;;;;3.80;2.28;;;;;;;13.67;nan;100756.50;4990745;28;20117;-86
2023/05/20 00:45:52;;;;;;;3.42;2.00;;;;;;;13.68;nan;100751.03;4990176;28;20038;-86
2023/05/20 00:48:17;;;;;;;5.60;2.15;;;;;;;13.68;nan;100752.81;4993921;28;20038;-85
2023/05/20 00:50:43;;;;;;;3.90;2.25;;;;;;;13.71;nan;100758.66;4973906;28;20042;-85
2023/05/20 00:53:09;;;;;;;5.65;2.30;;;;;;;13.76;nan;100751.00;4978646;28;20492;-85
2023/05/20 00:55:34;;;;;;;4.03;2.40;;;;;;;13.76;nan;100747.53;4993769;28;20117;-86
2023/05/20 00:58:00;;;;;;;4.30;2.35;;;;;;;13.76;nan;100742.22;4993990;28;20039;-85
2023/05/20 01:00:25;;;;;;;5.30;2.35;;;;;;;13.73;nan;100745.16;4982373;28;20121;-84
2023/05/20 01:02:53;;;;;;;3.47;2.35;;;;;;;13.78;nan;100743.69;4978461;28;20066;-85
2023/05/20 01:05:18;;;;;;;3.90;2.22;;;;;;;13.78;nan;100741.03;4983980;28;20074;-86
2023/05/20 01:07:44;;;;;;;3.63;2.40;;;;;;;13.71;nan;100747.19;4979626;28;20389;-85
2023/05/20 01:10:10;;;;;;;3.20;2.20;;;;;;;13.59;nan;100736.91;4977007;28;20125;-85
2023/05/20 01:12:42;;;;;;;3.50;2.22;;;;;;;13.55;nan;100735.56;4982320;28;20046;-86
2023/05/20 01:15:13;;;;;;;5.55;2.60;;;;;;;13.54;nan;100738.41;4966411;28;20034;-86
2023/05/20 01:17:43;;;;;;;4.28;2.33;;;;;;;13.39;nan;100727.56;4964067;28;20087;-86
2023/05/20 01:20:10;;;;;;;4.05;2.53;;;;;;;13.31;nan;100733.72;4979563;28;20042;-86
2023/05/20 01:22:36;;;;;;;4.47;2.22;;;;;;;13.24;nan;100729.19;4982188;28;20428;-86
2023/05/20 01:25:02;;;;;;;4.63;2.22;;;;;;;13.13;nan;100725.03;4980134;28;20036;-86
2023/05/20 01:27:29;;;;;;;3.72;1.90;;;;;;;13.09;nan;100737.00;4988306;28;20053;-86
2023/05/20 01:29:54;;;;;;;4.72;2.28;;;;;;;13.06;nan;100727.53;4969050;28;20038;-85
2023/05/20 01:32:30;;;;;;;3.38;2.10;;;;;;;13.00;nan;100733.47;4965359;28;20058;-86
2023/05/20 01:34:57;;;;;;;3.50;2.30;;;;;;;12.92;nan;100730.81;4982371;28;20041;-86
2023/05/20 01:37:24;;;;;;;5.88;2.40;;;;;;;12.84;nan;100723.63;4989902;28;20499;-85
2023/05/20 01:39:52;;;;;;;5.38;2.35;;;;;;;12.80;nan;100724.13;4990399;28;20220;-85
2023/05/20 01:42:19;;;;;;;5.47;2.55;;;;;;;12.83;nan;100722.00;4982406;28;20396;-85
2023/05/20 01:44:45;;;;;;;4.95;2.38;;;;;;;12.80;nan;100724.97;4985059;28;20537;-87
2023/05/20 01:47:10;;;;;;;5.15;2.55;;;;;;;12.74;nan;100729.09;4970268;28;20070;-85
2023/05/20 01:49:36;;;;;;;5.20;2.63;;;;;;;12.77;nan;100727.09;4992739;28;20058;-86
2023/05/20 01:52:01;;;;;;;6.25;2.70;;;;;;;12.70;nan;100727.75;4979594;28;20038;-84
2023/05/20 01:54:26;;;;;;;5.50;2.70;;;;;;;12.72;nan;100731.06;4978709;28;20030;-84
2023/05/20 01:56:52;;;;;;;5.32;2.50;;;;;;;12.61;nan;100717.25;4979138;28;20038;-85
2023/05/20 01:59:17;;;;;;;4.72;2.67;;;;;;;12.60;nan;100727.03;4978954;28;20035;-85
2023/05/20 02:01:42;;;;;;;3.85;2.30;;;;;;;12.53;nan;100723.38;4994370;28;20038;-84
2023/05/20 02:04:08;;;;;;;4.57;2.42;;;;;;;12.47;nan;100721.38;4994981;28;20043;-87
2023/05/20 02:06:33;;;;;;;4.70;2.50;;;;;;;12.43;nan;100720.00;4977706;28;20113;-84
2023/05/20 02:08:59;;;;;;;3.08;2.25;;;;;;;12.37;nan;100715.34;4993642;28;20118;-84
2023/05/20 02:11:25;;;;;;;4.15;2.55;;;;;;;12.24;nan;100721.91;4977482;28;20059;-85
2023/05/20 02:13:50;;;;;;;4.63;2.33;;;;;;;12.15;nan;100722.84;4995154;28;20512;-84
2023/05/20 02:16:16;;;;;;;3.63;2.28;;;;;;;12.13;nan;100722.16;4976850;28;20034;-86
2023/05/20 02:18:41;;;;;;;3.30;2.03;;;;;;;12.15;nan;100725.50;4976991;28;20030;-84
2023/05/20 02:21:07;;;;;;;2.97;2.03;;;;;;;12.16;nan;100718.41;4974975;28;20118;-88
2023/05/20 02:23:33;;;;;;;3.97;2.50;;;;;;;12.14;nan;100715.06;4993344;28;20034;-86
2023/05/20 02:25:58;;;;;;;4.50;2.30;;;;;;;12.16;nan;100713.94;4974738;28;20206;-86
2023/05/20 02:28:23;;;;;;;3.30;2.40;;;;;;;12.22;nan;100717.75;4974667;28;20097;-86
2023/05/20 02:30:51;;;;;;;3.50;2.17;;;;;;;12.29;nan;100713.47;4979953;28;20070;-86
2023/05/20 02:33:17;;;;;;;3.20;2.30;;;;;;;12.27;nan;100705.69;4972591;28;20051;-85
2023/05/20 02:35:43;;;;;;;4.30;2.70;;;;;;;12.29;nan;100709.00;4970856;28;20053;-86
2023/05/20 02:38:09;;;;;;;3.38;2.42;;;;;;;12.33;nan;100698.94;4983334;28;20034;-86
2023/05/20 02:40:34;;;;;;;4.78;2.60;;;;;;;12.32;nan;100697.25;4974728;28;20496;-85
2023/05/20 02:43:00;;;;;;;3.50;2.20;;;;;;;12.38;nan;100679.88;4984576;28;20039;-84
2023/05/20 02:45:26;;;;;;;4.35;2.25;;;;;;;12.42;nan;100689.16;4981204;28;20039;-86
2023/05/20 02:47:51;;;;;;;4.30;2.13;;;;;;;12.41;nan;100691.00;4973462;28;20057;-86
2023/05/20 02:50:16;;;;;;;2.97;2.20;;;;;;;12.35;nan;100685.50;4980102;28;20121;-86
2023/05/20 02:52:42;;;;;;;4.43;2.50;;;;;;;12.33;nan;100685.66;4983526;28;20038;-85
2023/05/20 02:55:08;;;;;;;3.83;2.67;;;;;;;12.30;nan;100688.66;4986969;28;20034;-87
2023/05/20 02:57:36;;;;;;;3.90;2.30;;;;;;;12.33;nan;100686.50;4966856;28;20137;-87
2023/05/20 03:00:04;;;;;;;3.80;2.70;;;;;;;12.41;nan;100688.34;4986131;28;20058;-84
2023/05/20 03:02:29;;;;;;;4.88;2.50;;;;;;;12.40;nan;100686.69;4988448;28;20133;-86
2023/05/20 03:04:54;;;;;;;3.33;2.13;;;;;;;12.48;nan;100683.22;4969787;28;20524;-85
2023/05/20 03:07:21;;;;;;;4.97;2.47;;;;;;;12.45;nan;100680.91;4958521;28;20322;-86
2023/05/20 03:09:46;;;;;;;4.07;2.88;;;;;;;12.45;nan;100679.09;4987322;28;20089;-86
2023/05/20 03:12:11;;;;;;;3.67;2.67;;;;;;;12.49;nan;100677.78;4984697;28;20050;-86
2023/05/20 03:14:37;;;;;;;5.07;2.63;;;;;;;12.52;nan;100674.78;4972241;28;20042;-85
2023/05/20 03:17:02;;;;;;;5.60;2.72;;;;;;;12.57;nan;100684.94;4991977;28;20042;-87
2023/05/20 03:19:27;;;;;;;5.68;2.95;;;;;;;12.59;nan;100676.81;4965143;28;20101;-84
2023/05/20 03:21:53;;;;;;;5.55;2.70;;;;;;;12.65;nan;100692.06;4971817;28;20073;-84
2023/05/20 03:24:18;;;;;;;4.05;2.53;;;;;;;12.70;nan;100682.66;4988792;28;20123;-86
2023/05/20 03:26:45;;;;;;;5.57;3.05;;;;;;;12.73;nan;100692.13;4975209;28;20452;-86
2023/05/20 03:29:10;;;;;;;5.70;3.13;;;;;;;12.65;nan;100682.28;4983945;28;20038;-85
2023/05/20 03:31:35;;;;;;;4.90;2.78;;;;;;;12.68;nan;100684.63;4993385;28;20690;-85
2023/05/20 03:34:01;;;;;;;4.35;3.17;;;;;;;12.66;nan;100683.97;4992797;28;20458;-86
2023/05/20 03:36:27;;;;;;;4.38;2.88;;;;;;;12.68;nan;100675.81;4992021;28;20057;-86
2023/05/20 03:38:52;;;;;;;5.28;3.10;;;;;;;12.70;nan;100684.47;4990247;28;20038;-86
2023/05/20 03:41:17;;;;;;;4.32;2.95;;;;;;;12.71;nan;100684.31;4983789;28;20034;-84
2023/05/20 03:43:43;;;;;;;4.43;2.70;;;;;;;12.75;nan;100682.16;4991845;28;20066;-86
2023/05/20 03:46:08;;;;;;;3.28;2.30;;;;;;;12.83;nan;100695.44;4989618;28;20042;-86
2023/05/20 03:48:33;;;;;;;5.70;2.50;;;;;;;12.82;nan;100688.47;4987462;28;20046;-87
2023/05/20 03:51:00;;;;;;;5.18;3.10;;;;;;;12.83;nan;100690.16;4969638;28;20544;-84
2023/05/20 03:53:26;;;;;;;4.43;2.60;;;;;;;12.84;nan;100683.81;4967284;28;20046;-84
2023/05/20 03:55:51;;;;;;;4.63;3.15;;;;;;;12.80;nan;100685.16;4973111;28;20031;-86
2023/05/20 03:58:16;;;;;;;4.65;2.83;;;;;;;12.86;nan;100678.38;4957890;28;20035;-85
2023/05/20 04:00:41;;;;;;;3.60;2.42;;;;;;;12.97;nan;100678.06;4975602;28;20027;-86
2023/05/20 04:03:07;;;;;;;3.40;2.55;;;;;;;12.99;nan;100680.53;4960492;28;20132;-85
2023/05/20 04:05:34;;;;;;;4.03;2.60;;;;;;;13.02;nan;100682.88;4986024;28;20605;-85
2023/05/20 04:08:00;;;;;;;3.58;2.50;;;;;;;13.01;nan;100681.22;4976795;28;20035;-87
2023/05/20 04:10:25;;;;;;;3.28;2.30;;;;;;;13.02;nan;100689.03;4977499;28;20046;-87
2023/05/20 04:12:52;;;;;;;4.50;2.50;;;;;;;13.00;nan;100691.00;4976631;28;20038;-85
2023/05/20 04:15:18;;;;;;;4.95;2.95;;;;;;;13.03;nan;100689.84;4963853;28;20385;-86
2023/05/20 04:17:47;;;;;;;4.53;2.20;;;;;;;13.11;nan;100692.53;4986599;28;20035;-86
2023/05/20 04:20:13;;;;;;;3.88;2.30;;;;;;;13.14;nan;100693.00;4971054;28;20058;-86
2023/05/20 04:22:38;;;;;;;4.03;2.30;;;;;;;13.22;nan;100694.00;4984889;28;20031;-86
2023/05/20 04:25:04;;;;;;;3.38;1.90;;;;;;;13.25;nan;100699.84;4976916;28;20096;-86
2023/05/20 04:27:32;;;;;;;3.38;2.60;;;;;;;13.29;nan;100692.38;4984218;28;20049;-86
2023/05/20 04:29:57;;;;;;;3.35;2.25;;;;;;;13.34;nan;100696.19;4980373;28;20033;-84
2023/05/20 04:32:23;;;;;;;4.32;2.40;;;;;;;13.34;nan;100690.88;4981073;28;20488;-87
2023/05/20 04:34:49;;;;;;;3.10;2.20;;;;;;;13.37;nan;100692.38;4973029;28;20031;-86
2023/05/20 04:37:15;;;;;;;3.47;2.15;;;;;;;13.40;nan;100694.72;4992701;28;20042;-86
2023/05/20 04:39:42;;;;;;;4.28;2.55;;;;;;;13.46;nan;100695.88;4985404;28;20042;-86
2023/05/20 04:42:07;;;;;;;3.33;2.25;;;;;;;13.50;nan;100695.38;4992715;28;20030;-87
2023/05/20 04:44:33;;;;;;;3.88;2.35;;;;;;;13.52;nan;100689.91;4985594;28;20035;-87
2023/05/20 04:46:58;;;;;;;3.53;2.10;;;;;;;13.55;nan;100690.38;4974676;28;20038;-85
2023/05/20 04:49:28;;;;;;;3.22;2.10;;;;;;;13.57;nan;100688.41;4986658;28;20085;-85
2023/05/20 04:51:54;;;;;;;3.08;2.08;;;;;;;13.64;nan;100695.72;4974826;28;20042;-85
2023/05/20 04:54:19;;;;;;;3.03;2.10;;;;;;;13.69;nan;100696.84;4978414;28;20046;-85
2023/05/20 04:56:45;;;;;;;3.38;1.83;;;;;;;13.74;nan;100696.34;4973831;28;20038;-85
2023/05/20 04:59:11;;;;;;;2.17;1.50;;;;;;;13.79;nan;100692.19;4979274;28;20397;-85
2023/05/20 05:01:37;;;;;;;3.13;2.08;;;;;;;13.79;nan;100694.03;4988997;28;20036;-85
2023/05/20 05:04:02;;;;;;;3.03;2.25;;;;;;;13.78;nan;100679.91;4980201;28;20053;-86
2023/05/20 05:06:27;;;;;;;2.83;1.95;;;;;;;13.80;nan;100683.22;4989991;28;20572;-85
2023/05/20 05:08:53;;;;;;;3.72;2.30;;;;;;;13.83;nan;100678.59;4964469;28;20039;-85
2023/05/20 05:11:18;;;;;;;3.75;2.50;;;;;;;13.88;nan;100679.72;4966394;28;20053;-85
2023/05/20 05:13:43;;;;;;;3.70;2.30;;;;;;;14.00;nan;100677.53;4982093;28;20062;-85
2023/05/20 05:16:09;;;;;;;6.43;2.90;;;;;;;14.06;nan;100676.84;4980306;28;20110;-85
2023/05/20 05:18:34;;;;;;;5.85;3.10;;;;;;;14.19;nan;100681.63;4985054;28;20058;-85
2023/05/20 05:21:04;;;;;;;4.68;2.97;;;;;;;14.27;nan;100683.44;4972859;28;20133;-85
2023/05/20 05:23:29;;;;;;;4.20;2.60;;;;;;;14.41;nan;100678.22;4976864;28;20038;-85
2023/05/20 05:25:56;;;;;;;4.05;2.33;;;;;;;14.59;nan;100670.03;4967794;28;20034;-85
2023/05/20 05:28:21;;;;;;;3.13;2.08;;;;;;;14.78;nan;100665.25;4984136;28;20042;-85
2023/05/20 05:30:47;;;;;;;3.15;2.08;;;;;;;14.92;nan;100667.16;4991079;28;20042;-85
2023/05/20 05:33:14;;;;;;;4.07;2.25;;;;;;;15.07;nan;100657.38;4986755;28;20031;-85
2023/05/20 05:35:42;;;;;;;3.85;2.67;;;;;;;15.20;nan;100661.28;4988315;28;20035;-85
2023/05/20 05:38:09;;;;;;;3.92;2.70;;;;;;;15.29;nan;100660.22;4967914;28;20031;-86
2023/05/20 05:40:35;;;;;;;5.15;2.97;;;;;;;15.31;nan;100660.06;4984053;28;20416;-86
2023/05/20 05:43:00;;;;;;;4.05;2.70;;;;;;;15.42;nan;100654.28;4967407;28;20047;-86
2023/05/20 05:45:25;;;;;;;3.92;3.05;;;;;;;15.38;nan;100653.00;4971454;28;20062;-86
2023/05/20 05:47:50;;;;;;;4.32;3.08;;;;;;;15.55;nan;100651.81;4987833;28;20034;-85
2023/05/20 05:50:16;;;;;;;3.85;2.90;;;;;;;15.75;nan;100651.31;4979982;28;20105;-85
2023/05/20 05:52:41;;;;;;;3.35;2.60;;;;;;;15.92;nan;100650.97;4981964;28;20042;-85
2023/05/20 05:55:08;;;;;;;4.93;3.28;;;;;;;16.04;nan;100647.84;4983794;28;20445;-86
2023/05/20 05:57:33;;;;;;;3.92;3.13;;;;;;;15.95;nan;100640.97;4962468;28;20043;-85
2023/05/20 05:59:58;;;;;;;4.50;3.20;;;;;;;16.15;nan;100650.03;4969855;28;20096;-85
2023/05/20 06:02:24;;;;;;;4.70;2.92;;;;;;;16.28;nan;100644.03;4980172;28;20031;-85
2023/05/20 06:04:49;;;;;;;4.25;3.28;;;;;;;16.38;nan;100639.25;4991126;28;20560;-87
2023/05/20 06:07:15;;;;;;;5.57;3.40;;;;;;;16.42;nan;100637.03;4983041;28;20612;-87
2023/05/20 06:09:40;;;;;;;7.63;3.20;;;;;;;16.54;nan;100640.88;4982370;28;20042;-87
2023/05/20 06:12:05;;;;;;;3.92;2.92;;;;;;;16.71;nan;100631.63;4965108;28;20034;-85
2023/05/20 06:14:31;;;;;;;4.00;3.20;;;;;;;16.74;nan;100639.25;4965943;28;20042;-86
2023/05/20 06:16:57;;;;;;;4.10;2.88;;;;;;;16.89;nan;100639.22;4985508;28;20057;-85
2023/05/20 06:19:22;;;;;;;5.05;3.38;;;;;;;17.05;nan;100637.31;4964769;28;20034;-85
2023/05/20 06:21:47;;;;;;;4.82;3.00;;;;;;;17.25;nan;100637.50;4977061;28;20209;-86
2023/05/20 06:24:13;;;;;;;4.72;3.40;;;;;;;17.15;nan;100633.28;4980009;28;20046;-85
2023/05/20 06:26:38;;;;;;;5.23;3.40;;;;;;;17.27;nan;100635.47;4964309;28;20043;-86
2023/05/20 06:29:03;;;;;;;3.70;2.80;;;;;;;17.29;nan;100641.44;4982754;28;20270;-85
2023/05/20 06:31:32;;;;;;;10.47;5.00;;;;;;;17.31;nan;100631.38;4972350;28;20042;-87
2023/05/20 06:33:57;;;;;;;5.40;3.60;;;;;;;17.32;nan;100638.38;4982470;28;20281;-86
2023/05/20 06:36:22;;;;;;;8.68;4.28;;;;;;;17.35;nan;100632.63;4979582;28;20031;-87
2023/05/20 06:38:48;;;;;;;4.97;3.53;;;;;;;17.33;nan;100638.19;4961687;28;20448;-87
2023/05/20 06:41:13;;;;;;;4.30;3.20;;;;;;;17.49;nan;100630.88;4988543;28;20042;-87
2023/05/20 06:43:39;;;;;;;4.22;3.15;;;;;;;17.76;nan;100622.03;4985341;28;20039;-87
2023/05/20 06:46:05;;;;;;;14.25;4.25;;;;;;;17.77;nan;100625.53;4970233;28;20046;-87
2023/05/20 06:48:30;;;;;;;17.38;3.72;;;;;;;17.84;nan;100626.44;4989224;28;20038;-86
2023/05/20 06:50:56;;;;;;;3.90;2.85;;;;;;;17.97;nan;100634.53;4974952;28;20061;-86
2023/05/20 06:53:21;;;;;;;5.18;3.60;;;;;;;18.08;nan;100635.00;4973760;28;20038;-87
2023/05/20 06:55:46;;;;;;;4.53;3.28;;;;;;;18.03;nan;100635.59;4983190;28;20126;-87
2023/05/20 06:58:12;;;;;;;4.82;3.30;;;;;;;17.90;nan;100639.03;4979789;28;20058;-87
2023/05/20 07:00:38;;;;;;;3.83;2.57;;;;;;;18.24;nan;100632.81;4963626;28;21027;-86
2023/05/20 07:03:03;;;;;;;4.20;2.80;;;;;;;18.36;nan;100635.75;4969365;28;20425;-86
2023/05/20 07:05:28;;;;;;;6.03;2.90;;;;;;;18.43;nan;100627.72;4986387;28;20042;-86
2023/05/20 07:07:54;;;;;;;3.65;2.83;;;;;;;18.42;nan;100618.88;4985053;28;20046;-87
2023/05/20 07:10:19;;;;;;;3.42;3.05;;;;;;;18.65;nan;100618.50;4966979;28;20073;-86
2023/05/20 07:12:44;;;;;;;4.05;3.25;;;;;;;18.80;nan;100610.31;4981235;28;20049;-85
2023/05/20 07:15:10;;;;;;;4.63;3.30;;;;;;;18.91;nan;100605.41;4975160;28;20398;-85
2023/05/20 07:17:35;;;;;;;4.95;3.30;;;;;;;19.25;nan;100601.69;4976591;28;20293;-86
2023/05/20 07:20:01;;;;;;;4.32;3.22;;;;;;;19.60;nan;100606.84;4975816;28;20499;-86
2023/05/20 07:22:26;;;;;;;3.92;3.08;;;;;;;20.19;nan;100599.63;4979240;28;20552;-86
2023/05/20 07:24:52;;;;;;;5.57;3.65;;;;;;;20.54;nan;100595.53;4966949;28;20062;-86
2023/05/20 07:27:17;;;;;;;5.70;3.60;;;;;;;20.78;nan;100598.50;4969562;28;20500;-86
2023/05/20 07:29:42;;;;;;;5.05;3.22;;;;;;;20.82;nan;100596.22;4982042;28;20357;-86
2023/05/20 07:32:08;;;;;;;5.73;3.50;;;;;;;21.19;nan;100591.81;4963007;28;20432;-87
2023/05/20 07:34:33;;;;;;;4.30;2.90;;;;;;;21.55;nan;100596.47;4981067;28;20081;-85
2023/05/20 07:36:58;;;;;;;5.28;3.33;;;;;;;22.25;nan;100581.81;4983917;28;20027;-86
2023/05/20 07:39:24;;;;;;;;;;;;;;;22.40;nan;100582.19;4987403;28;20038;-85
2023/05/20 07:41:49;;;;;;;;;;;;;;;22.66;nan;100583.69;4983977;28;19921;-84
2023/05/20 07:44:14;;;;;;;;;;;;;;;22.73;nan;100582.78;4986715;28;19933;-84
2023/05/20 07:46:40;;;;;;;;;;;;;;;23.20;nan;100574.81;4972247;28;20330;-85
2023/05/20 07:49:06;;;;;;;;;;;;;;;23.85;nan;100577.34;4959293;28;19914;-85
2023/05/20 07:51:31;;;;;;;;;;;;;;;23.87;nan;100590.59;4957293;28;19941;-86
2023/05/20 07:53:56;;;;;;;;;;;;;;;24.17;nan;100583.13;4982126;28;20584;-85
2023/05/20 07:56:21;;;;;;;;;;;;;;;24.15;nan;100581.72;4974033;28;20338;-85
2023/05/20 07:58:57;;;;;;;;;;;;;;;23.60;nan;100583.00;4964988;28;20169;-85
2023/05/20 08:01:22;;;;;;;;;;;;;;;23.97;nan;100574.59;4974443;28;19918;-85
2023/05/20 08:03:47;;;;;;;;;;;;;;;24.43;nan;100574.66;4978626;28;19922;-85
2023/05/20 08:06:12;;;;;;;;;;;;;;;23.88;nan;100576.88;4977009;28;19914;-85
2023/05/20 08:08:39;;;;;;;;;;;;;;;23.94;nan;100575.91;4972416;28;19929;-85
2023/05/20 08:11:04;;;;;;;;;;;;;;;23.88;nan;100570.63;4972409;28;19990;-84
2023/05/20 08:13:29;;;;;;;;;;;;;;;23.62;nan;100571.94;4974456;28;20387;-84
2023/05/20 08:15:55;;;;;;;;;;;;;;;24.29;nan;100572.28;4975882;28;19914;-84
2023/05/20 08:18:20;;;;;;;;;;;;;;;24.56;nan;100572.50;4982993;28;19924;-84
2023/05/20 08:20:46;;;;;;;;;;;;;;;24.11;nan;100578.66;4988437;28;19921;-84
2023/05/20 08:23:11;;;;;;;;;;;;;;;24.63;nan;100577.78;4971972;28;19918;-84
2023/05/20 08:25:39;;;;;;;;;;;;;;;24.82;nan;100572.16;4977549;28;19917;-85
2023/05/20 08:28:05;;;;;;;;;;;;;;;25.05;nan;100569.28;4983958;28;19986;-86
2023/05/20 08:30:31;;;;;;;;;;;;;;;25.38;nan;100573.03;4967537;28;20377;-85
2023/05/20 08:32:56;;;;;;;;;;;;;;;25.48;nan;100573.19;4987017;28;20430;-86
2023/05/20 08:35:22;;;;;;;;;;;;;;;25.30;nan;100573.47;4989419;28;19917;-85
2023/05/20 08:37:47;;;;;;;;;;;;;;;25.16;nan;100575.66;4973654;28;19964;-84
2023/05/20 08:40:13;;;;;;;;;;;;;;;25.98;nan;100574.94;4978839;28;19921;-84
2023/05/20 08:42:42;;;;;;;;;;;;;;;26.42;nan;100579.47;4975358;28;19918;-83
2023/05/20 08:45:10;;;;;;;4.25;3.22;;;;;;;26.94;nan;100568.03;4987160;28;19913;-85
2023/05/20 08:47:35;;;;;;;;;;;;;;;27.22;nan;100574.22;4990284;28;20050;-84
2023/05/20 08:50:02;;;;;;;4.38;2.83;;;;;;;27.50;nan;100576.56;4977357;28;19917;-84
2023/05/20 08:52:29;;;;;;;3.88;3.10;;;;;;;27.02;nan;100555.88;4976098;28;20030;-84
2023/05/20 08:54:55;;;;;;;3.97;3.22;;;;;;;27.24;nan;100553.88;4972999;28;20035;-85
2023/05/20 08:57:21;;;;;;;5.57;3.15;;;;;;;26.64;nan;100555.03;4975452;28;20030;-85
2023/05/20 08:59:46;;;;;;;4.20;3.08;;;;;;;26.54;nan;100549.53;4970939;28;20094;-86
2023/05/20 09:02:12;;;;;;;5.65;3.20;;;;;;;26.78;nan;100542.66;4965978;28;20411;-86
2023/05/20 09:04:37;;;;;;;;;;;;;;;27.70;nan;100534.28;4965790;28;20501;-86
2023/05/20 09:07:03;;;;;;;5.90;3.47;;;;;;;27.09;nan;100545.59;4965466;28;19919;-86
2023/05/20 09:09:29;;;;;;;3.58;3.00;;;;;;;27.00;nan;100539.03;4964486;28;20502;-85
2023/05/20 09:11:55;;;;;;;6.03;3.08;;;;;;;27.28;nan;100535.97;4969602;28;20105;-86
2023/05/20 09:14:20;;;;;;;4.03;2.78;;;;;;;27.10;nan;100531.78;4967213;28;20069;-85
2023/05/20 09:16:47;;;;;;;6.40;3.88;;;;;;;27.91;nan;100530.59;4982741;28;20198;-85
2023/05/20 09:19:13;;;;;;;2.87;2.50;;;;;;;28.07;nan;100536.88;4979411;28;20419;-85
2023/05/20 09:21:40;;;;;;;4.13;2.93;;;;;;;28.01;nan;100537.13;4979588;28;20042;-85
2023/05/20 09:24:05;;;;;;;3.30;2.58;;;;;;;28.38;nan;100532.31;4972917;28;20592;-86
2023/05/20 09:26:31;;;;;;;3.58;3.10;;;;;;;29.31;nan;100526.84;4984730;28;20113;-86
2023/05/20 09:28:57;;;;;;;3.83;3.00;;;;;;;29.52;nan;100533.84;4969793;28;20496;-85
2023/05/20 09:31:41;;;;;;;4.45;3.47;;;;;;;29.31;nan;100538.56;4990860;28;20037;-85
2023/05/20 09:34:06;;;;;;;7.15;3.05;;;;;;;29.28;nan;100533.66;4983979;28;20109;-86
2023/05/20 09:36:33;;;;;;;4.20;3.35;;;;;;;29.39;nan;100535.28;4988814;28;20042;-86
2023/05/20 09:39:02;;;;;;;6.25;3.50;;;;;;;29.05;nan;100535.03;4984679;28;20037;-85
2023/05/20 09:41:35;;;;;;;4.15;3.40;;;;;;;29.33;nan;100525.47;4974903;28;20030;-85
2023/05/20 09:44:02;;;;;;;3.50;2.78;;;;;;;28.89;nan;100527.97;4973344;28;20042;-85
2023/05/20 09:46:28;;;;;;;3.67;2.85;;;;;;;28.88;nan;100526.34;4982275;28;20065;-86
2023/05/20 09:48:53;;;;;;;3.47;2.75;;;;;;;28.79;nan;100521.47;4974624;28;20589;-86
2023/05/20 09:51:22;;;;;;;3.63;2.75;;;;;;;29.11;nan;100530.44;4988059;28;20031;-85
2023/05/20 09:53:47;;;;;;;4.35;3.08;;;;;;;28.97;nan;100533.69;4984460;28;20034;-86
2023/05/20 09:56:12;;;;;;;6.40;3.50;;;;;;;30.04;nan;100537.19;4970310;28;20038;-86
2023/05/20 09:58:40;;;;;;;4.38;3.20;;;;;;;29.79;nan;100533.50;4972383;28;20035;-86
2023/05/20 10:01:06;;;;;;;4.00;2.70;;;;;;;29.65;nan;100521.53;4986811;28;20035;-85
2023/05/20 10:03:32;;;;;;;4.25;3.40;;;;;;;29.91;nan;100530.44;4986208;28;20035;-86
2023/05/20 10:06:19;;;;;;;4.32;3.17;;;;;;;29.82;nan;100513.88;4980203;28;20121;-86
2023/05/20 10:09:39;;;;;;;4.55;2.97;;;;;;;30.36;nan;100514.91;4986868;28;20033;-86
2023/05/20 10:12:19;;;;;;;5.03;3.00;;;;;;;30.05;nan;100517.81;4914808;29;20518;-86
2023/05/20 10:14:53;;;;;;;5.32;3.42;;;;;;;30.58;nan;100509.03;4959959;28;20445;-85
2023/05/20 10:17:37;;;;;;;4.63;3.47;;;;;;;30.95;nan;100509.53;4979270;28;20068;-86
2023/05/20 10:20:08;;;;;;;4.53;2.97;;;;;;;30.83;nan;100510.72;4972287;28;20531;-87
2023/05/20 10:22:33;;;;;;;6.57;3.10;;;;;;;31.37;nan;100508.78;4981655;28;20077;-87
2023/05/20 10:25:00;;;;;;;4.13;3.10;;;;;;;31.15;nan;100506.56;4956870;28;20440;-84
2023/05/20 10:27:25;;;;;;;3.88;3.20;;;;;;;30.80;nan;100511.28;4958012;28;20512;-85
2023/05/20 10:29:52;;;;;;;4.78;3.17;;;;;;;31.14;nan;100512.34;4957160;28;20298;-84
2023/05/20 10:32:23;;;;;;;4.55;3.00;;;;;;;31.55;nan;100501.75;4965685;28;20058;-85
2023/05/20 10:34:50;;;;;;;4.00;2.92;;;;;;;32.02;nan;100499.25;4969799;28;20039;-86
2023/05/20 10:37:32;;;;;;;4.07;3.10;;;;;;;31.95;nan;100500.41;4983881;28;20037;-86
2023/05/20 10:40:05;;;;;;;4.10;3.00;;;;;;;31.83;29.18;100497.28;5084938;27;20764;-87
2023/05/20 10:42:31;;;;;;;5.47;3.33;;;;;;;31.93;28.42;100485.38;5085889;28;20067;-87
2023/05/20 10:44:56;;;;;;;4.47;3.22;;;;;;;31.87;29.41;100478.34;5084119;28;20044;-87
2023/05/20 10:47:21;;;;;;;4.23;3.10;;;;;;;32.39;27.21;100479.22;5079915;28;20079;-87
2023/05/20 10:49:47;;;;;;;3.40;3.10;;;;;;;32.62;27.74;100476.69;5085613;28;20384;-87
2023/05/20 10:52:13;;;;;;;4.90;3.10;;;;;;;32.40;27.50;100474.56;5083615;28;20029;-87
2023/05/20 10:54:46;;;;;;;4.15;3.10;;;;;;;32.36;27.44;100477.88;5090535;28;20068;-87
2023/05/20 10:57:12;;;;;;;4.13;2.90;;;;;;;33.09;27.02;100477.50;5080516;28;20396;-87
2023/05/20 10:59:38;;;;;;;4.10;3.00;;;;;;;33.14;26.87;100480.94;5085270;28;20033;-87
2023/05/20 11:02:04;;;;;;;4.13;3.10;;;;;;;32.05;26.92;100474.84;5077041;28;20554;-87
2023/05/20 11:04:30;;;;;;;3.70;3.25;;;;;;;30.00;30.33;100473.41;5078724;28;20463;-87
2023/05/20 11:06:57;;;;;;;4.18;3.50;;;;;;;30.33;29.91;100471.03;5075959;28;20039;-87
2023/05/20 11:09:22;;;;;;;4.20;3.20;;;;;;;30.69;29.79;100469.59;5081528;28;20057;-87
2023/05/20 11:11:50;;;;;;;6.53;3.83;;;;;;;30.55;29.80;100462.38;5083541;28;20056;-87
2023/05/20 11:14:17;;;;;;;5.32;3.60;;;;;;;31.73;28.85;100468.16;5075869;28;20040;-87
2023/05/20 11:16:42;;;;;;;5.60;3.72;;;;;;;31.55;28.31;100466.22;5075526;28;20448;-87
2023/05/20 11:19:08;;;;;;;6.25;4.60;;;;;;;30.99;30.19;100464.97;5079462;28;20044;-87
2023/05/20 11:21:33;;;;;;;4.38;3.92;;;;;;;31.21;28.18;100452.69;5085286;28;20040;-87
2023/05/20 11:23:58;;;;;;;8.65;5.32;;;;;;;29.76;30.48;100459.66;5081081;28;20056;-87
2023/05/20 11:26:24;;;;;;;5.30;4.13;;;;;;;29.08;31.52;100461.03;5071440;28;20029;-87
2023/05/20 11:28:50;;;;;;;4.28;3.50;;;;;;;29.02;31.51;100449.28;5078765;28;20032;-86
2023/05/20 11:31:17;;;;;;;4.68;3.78;;;;;;;29.32;30.93;100447.59;5079544;28;20036;-87
2023/05/20 11:33:42;;;;;;;4.55;3.60;;;;;;;29.44;31.07;100452.72;5080771;28;20041;-86
2023/05/20 11:36:08;;;;;;;5.72;4.10;;;;;;;28.27;33.51;100434.66;5077256;28;20130;-87
2023/05/20 11:38:33;;;;;;;6.25;3.90;;;;;;;28.17;33.85;100443.63;5081706;28;20028;-86
2023/05/20 11:40:59;;;;;;;5.30;3.90;;;;;;;27.54;34.39;100438.34;5076840;28;20040;-86
2023/05/20 11:43:24;;;;;;;4.40;3.50;;;;;;;27.66;34.61;100440.81;5032208;28;20031;-87